Time;durP1;ratioP1;P1;durP2;ratioP2;P2;SDS_P1;SDS_P2;PMS_P1;PMS_P2;Temp;Humidity;BMP_temperature;BMP_pressure;BME280_temperature;BME280_humidity;BME280_pressure;Samples;Min_cycle;Max_cycle;Signal;HPM_P1;HPM_P2
2021/04/18 00:00:11;;;;;;;;;;;;;;;7.30;70.66;94550.45;1760178;81;20248;-53
2021/04/18 00:02:39;;;;;;;;;;;;;;;7.30;70.56;94550.45;1760253;81;20224;-53
2021/04/18 00:05:09;;;;;;;;;;;;;;;7.29;70.65;94556.52;1760185;81;21210;-53
2021/04/18 00:07:36;;;;;;;;;;;;;;;7.30;70.49;94559.41;1760113;81;20224;-53
2021/04/18 00:10:06;;;;;;;;;;;;;;;7.27;70.37;94561.65;1760179;81;20291;-54
2021/04/18 00:12:35;;;;;;;;;;;;;;;7.27;70.38;94560.87;1760185;81;20221;-52
2021/04/18 00:15:07;;;;;;;;;;;;;;;7.23;70.31;94558.24;1760174;81;20263;-52
2021/04/18 00:17:34;;;;;;;;;;;;;;;7.24;70.38;94553.53;1760161;81;21201;-53
2021/04/18 00:20:06;;;;;;;;;;;;;;;7.23;70.56;94545.94;1760001;81;20213;-55
2021/04/18 00:22:33;;;;;;;;;;;;;;;7.24;70.64;94544.73;1760253;81;20233;-54
2021/04/18 00:25:01;;;;;;;;;;;;;;;7.25;70.71;94544.90;1760183;81;20216;-54
2021/04/18 00:27:28;;;;;;;;;;;;;;;7.22;70.89;94536.19;1760224;81;20244;-54
2021/04/18 00:29:56;;;;;;;;;;;;;;;7.21;70.89;94541.50;1760169;81;21983;-54
2021/04/18 00:32:23;;;;;;;;;;;;;;;7.20;70.92;94535.86;1760153;81;20240;-53
2021/04/18 00:34:51;;;;;;;;;;;;;;;7.18;71.01;94538.23;1760169;81;20220;-53
2021/04/18 00:37:19;;;;;;;;;;;;;;;7.18;71.00;94527.89;1760129;81;20244;-52
2021/04/18 00:39:47;;;;;;;;;;;;;;;7.18;70.89;94531.39;1760176;81;20229;-54
2021/04/18 00:42:16;;;;;;;;;;;;;;;7.14;70.98;94527.98;1760264;81;22118;-56
2021/04/18 00:44:43;;;;;;;;;;;;;;;7.11;71.18;94528.84;1760156;81;20225;-54
2021/04/18 00:47:12;;;;;;;;;;;;;;;7.08;71.32;94528.34;1760120;81;20244;-55
2021/04/18 00:49:40;;;;;;;;;;;;;;;7.08;71.35;94524.23;1760273;81;20492;-54
2021/04/18 00:52:07;;;;;;;;;;;;;;;7.08;71.52;94525.61;1760171;81;20240;-55
2021/04/18 00:54:35;;;;;;;;;;;;;;;7.12;71.40;94526.89;1760177;81;21207;-55
2021/04/18 00:57:05;;;;;;;;;;;;;;;7.11;71.52;94525.33;1760088;81;20208;-55
2021/04/18 00:59:33;;;;;;;;;;;;;;;7.09;71.59;94522.26;1760195;81;20216;-55
2021/04/18 01:02:01;;;;;;;;;;;;;;;7.10;71.46;94521.06;1760096;81;20311;-54
2021/04/18 01:04:29;;;;;;;;;;;;;;;7.08;71.22;94521.34;1760156;81;20261;-54
2021/04/18 01:06:56;;;;;;;;;;;;;;;7.03;71.29;94520.50;1760138;81;21213;-54
2021/04/18 01:09:25;;;;;;;;;;;;;;;7.01;71.30;94520.13;1760100;81;20237;-55
2021/04/18 01:11:52;;;;;;;;;;;;;;;7.00;71.18;94516.64;1760125;81;20216;-54
2021/04/18 01:14:20;;;;;;;;;;;;;;;6.98;71.36;94521.00;1760131;81;20240;-55
2021/04/18 01:16:48;;;;;;;;;;;;;;;7.00;71.37;94522.70;1760157;81;20220;-53
2021/04/18 01:19:16;;;;;;;;;;;;;;;7.00;71.41;94525.44;1760162;81;21432;-54
2021/04/18 01:21:45;;;;;;;;;;;;;;;6.99;71.43;94526.05;1770598;81;20239;-53
2021/04/18 01:24:25;;;;;;;;;;;;;;;6.97;71.42;94524.93;1770407;81;20271;-53
2021/04/18 01:26:57;;;;;;;;;;;;;;;6.95;71.49;94528.70;1762695;81;20224;-53
2021/04/18 01:29:25;;;;;;;;;;;;;;;6.96;71.37;94524.76;1772058;81;20232;-55
2021/04/18 01:31:53;;;;;;;;;;;;;;;6.93;71.45;94536.56;1772106;81;21215;-54
2021/04/18 01:34:20;;;;;;;;;;;;;;;6.93;71.66;94536.56;1772019;81;20232;-54
2021/04/18 01:36:50;;;;;;;;;;;;;;;6.90;71.79;94534.08;1772023;81;20220;-54
2021/04/18 01:39:18;;;;;;;;;;;;;;;6.94;71.94;94534.78;1771984;81;20228;-54
2021/04/18 01:41:45;;;;;;;;;;;;;;;6.99;71.95;94536.20;1772083;81;20244;-56
2021/04/18 01:44:14;;;;;;;;;;;;;;;7.02;71.84;94540.81;1772071;81;21227;-56
2021/04/18 01:46:45;;;;;;;;;;;;;;;7.06;71.61;94534.06;1746023;81;20240;-54
2021/04/18 01:49:13;;;;;;;;;;;;;;;7.09;71.39;94534.56;1772089;81;20212;-55
2021/04/18 01:51:41;;;;;;;;;;;;;;;7.08;71.16;94540.65;1746005;81;20240;-54
2021/04/18 01:54:10;;;;;;;;;;;;;;;7.06;71.14;94536.05;1772156;81;20625;-53
2021/04/18 01:56:38;;;;;;;;;;;;;;;7.00;71.32;94531.69;1772062;81;21213;-53
2021/04/18 01:59:07;;;;;;;;;;;;;;;6.96;71.62;94534.33;1771917;81;20227;-53
2021/04/18 02:01:42;;;;;;;;;;;;;;;6.95;71.67;94537.68;1770541;81;20271;-53
2021/04/18 02:04:26;;;;;;;;;;;;;;;6.95;71.93;94532.80;1772086;81;20216;-54
2021/04/18 02:06:56;;;;;;;;;;;;;;;6.96;71.90;94531.59;1771774;81;20216;-53
2021/04/18 02:09:24;;;;;;;;;;;;;;;6.96;71.85;94524.76;1772058;81;21262;-53
2021/04/18 02:11:52;;;;;;;;;;;;;;;6.99;71.83;94527.41;1771932;81;20223;-55
2021/04/18 02:14:20;;;;;;;;;;;;;;;7.04;71.72;94523.41;1772017;81;20216;-54
2021/04/18 02:16:52;;;;;;;;;;;;;;;7.06;71.66;94521.75;1771638;81;20237;-54
2021/04/18 02:19:20;;;;;;;;;;;;;;;7.06;71.60;94519.63;1772022;81;20236;-54
2021/04/18 02:21:49;;;;;;;;;;;;;;;7.04;71.76;94522.03;1773227;80;21278;-54
2021/04/18 02:24:17;;;;;;;;;;;;;;;7.04;71.71;94517.93;1773626;81;20219;-53
2021/04/18 02:26:45;;;;;;;;;;;;;;;7.04;71.55;94520.66;1743199;81;20187;-53
2021/04/18 02:29:15;;;;;;;;;;;;;;;7.02;71.46;94514.83;1772788;81;20248;-53
2021/04/18 02:31:47;;;;;;;;;;;;;;;6.98;71.48;94521.78;1771871;81;20717;-54
2021/04/18 02:34:16;;;;;;;;;;;;;;;6.97;71.69;94518.88;1773666;81;21438;-54
2021/04/18 02:36:44;;;;;;;;;;;;;;;6.97;71.86;94523.56;1773621;81;20291;-53
2021/04/18 02:39:12;;;;;;;;;;;;;;;6.96;71.90;94523.39;1773568;81;20221;-53
2021/04/18 02:41:40;;;;;;;;;;;;;;;6.93;72.05;94520.16;1773599;81;20212;-52
2021/04/18 02:44:08;;;;;;;;;;;;;;;6.95;72.27;94516.39;1773674;81;20216;-53
2021/04/18 02:46:36;;;;;;;;;;;;;;;6.97;72.21;94505.78;1773626;81;21220;-54
2021/04/18 02:49:05;;;;;;;;;;;;;;;6.96;72.30;94507.77;1773604;81;20220;-53
2021/04/18 02:51:34;;;;;;;;;;;;;;;6.93;72.36;94506.48;1773635;81;20291;-53
2021/04/18 02:54:03;;;;;;;;;;;;;;;6.88;72.57;94509.74;1773645;81;20237;-52
2021/04/18 02:56:33;;;;;;;;;;;;;;;6.90;72.61;94508.72;1743584;81;20240;-53
2021/04/18 02:59:03;;;;;;;;;;;;;;;6.92;72.41;94513.15;1772962;81;21467;-54
2021/04/18 03:01:32;;;;;;;;;;;;;;;6.91;72.42;94514.35;1773556;81;20216;-54
2021/04/18 03:04:01;;;;;;;;;;;;;;;6.85;72.37;94508.63;1773646;81;20248;-54
2021/04/18 03:06:29;;;;;;;;;;;;;;;6.81;72.49;94509.32;1773642;81;20240;-53
2021/04/18 03:08:58;;;;;;;;;;;;;;;6.81;72.59;94514.00;1773608;81;20219;-54
2021/04/18 03:11:28;;;;;;;;;;;;;;;6.80;72.48;94513.83;1773597;81;20212;-53
2021/04/18 03:13:58;;;;;;;;;;;;;;;6.77;72.52;94517.42;1773514;81;22697;-53
2021/04/18 03:16:26;;;;;;;;;;;;;;;6.74;72.47;94515.55;1773613;81;20232;-53
2021/04/18 03:18:54;;;;;;;;;;;;;;;6.75;72.58;94517.09;1773556;81;20307;-52
2021/04/18 03:21:23;;;;;;;;;;;;;;;6.80;72.52;94516.56;1767154;81;20220;-54
2021/04/18 03:23:51;;;;;;;;;;;;;;;6.80;72.50;94520.67;1760094;81;21213;-52
2021/04/18 03:26:19;;;;;;;;;;;;;;;6.79;72.57;94514.45;1759975;81;20240;-53
2021/04/18 03:28:49;;;;;;;;;;;;;;;6.72;72.69;94519.31;1760068;81;20221;-53
2021/04/18 03:31:17;;;;;;;;;;;;;;;6.61;72.99;94523.67;1760144;81;20225;-53
2021/04/18 03:33:53;;;;;;;;;;;;;;;6.52;73.29;94518.64;1759517;81;20233;-54
2021/04/18 03:36:23;;;;;;;;;;;;;;;6.46;73.49;94513.48;1760187;81;20225;-53
2021/04/18 03:38:51;;;;;;;;;;;;;;;6.46;73.71;94512.13;1760072;81;20209;-54
2021/04/18 03:41:21;;;;;;;;;;;;;;;6.47;73.68;94508.20;1760246;81;20216;-54
2021/04/18 03:43:49;;;;;;;;;;;;;;;6.45;73.63;94518.78;1760232;81;20246;-54
2021/04/18 03:46:18;;;;;;;;;;;;;;;6.45;73.63;94512.73;1760214;81;20224;-53
2021/04/18 03:48:48;;;;;;;;;;;;;;;6.45;73.73;94520.15;1760207;81;21322;-52
2021/04/18 03:51:17;;;;;;;;;;;;;;;6.46;73.84;94518.38;1760152;81;20240;-53
2021/04/18 03:53:46;;;;;;;;;;;;;;;6.47;73.96;94519.13;1759642;81;20217;-54
2021/04/18 03:56:16;;;;;;;;;;;;;;;6.49;74.06;94522.22;1760085;81;20220;-53
2021/04/18 03:58:46;;;;;;;;;;;;;;;6.51;73.94;94519.83;1760008;81;20220;-53
2021/04/18 04:01:15;;;;;;;;;;;;;;;6.51;73.90;94521.20;1760033;81;21603;-52
2021/04/18 04:03:43;;;;;;;;;;;;;;;6.56;74.08;94521.44;1760187;81;20225;-52
2021/04/18 04:06:13;;;;;;;;;;;;;;;6.64;73.95;94526.13;1760275;81;20224;-53
2021/04/18 04:08:41;;;;;;;;;;;;;;;6.67;73.95;94526.67;1734558;81;20225;-53
2021/04/18 04:11:11;;;;;;;;;;;;;;;6.71;73.72;94527.34;1760005;81;20512;-54
2021/04/18 04:13:40;;;;;;;;;;;;;;;6.71;73.59;94528.72;1760180;81;21355;-53
2021/04/18 04:16:10;;;;;;;;;;;;;;;6.70;73.56;94529.91;1760139;81;20240;-53
2021/04/18 04:18:39;;;;;;;;;;;;;;;6.74;73.78;94534.69;1760180;81;20216;-54
2021/04/18 04:21:08;;;;;;;;;;;;;;;6.82;73.80;94526.47;1748978;81;20633;-54
2021/04/18 04:23:43;;;;;;;;;;;;;;;6.89;73.65;94533.16;1719890;81;20675;-53
2021/04/18 04:26:11;;;;;;;;;;;;;;;6.92;73.52;94524.09;1760123;81;23423;-54
2021/04/18 04:28:38;;;;;;;;;;;;;;;6.92;73.54;94528.19;1760138;81;20229;-55
2021/04/18 04:31:06;;;;;;;;;;;;;;;6.93;73.55;94526.98;1760155;81;20508;-53
2021/04/18 04:33:39;;;;;;;;;;;;;;;6.92;73.60;94529.56;1760143;81;20212;-55
2021/04/18 04:36:08;;;;;;;;;;;;;;;6.91;73.50;94521.94;1760204;81;20233;-53
2021/04/18 04:38:36;;;;;;;;;;;;;;;6.91;73.58;94523.30;1760090;81;21283;-54
2021/04/18 04:41:04;;;;;;;;;;;;;;;7.01;73.71;94524.23;1760131;81;20220;-53
2021/04/18 04:43:33;;;;;;;;;;;;;;;7.12;73.41;94526.28;1760103;81;20220;-54
2021/04/18 04:46:02;;;;;;;;;;;;;;;7.15;73.30;94529.52;1760189;81;20241;-53
2021/04/18 04:48:31;;;;;;;;;;;;;;;7.17;73.31;94521.64;1760177;81;20225;-55
2021/04/18 04:50:58;;;;;;;;;;;;;;;7.26;73.19;94520.44;1760213;81;22162;-54
2021/04/18 04:53:26;;;;;;;;;;;;;;;7.33;72.92;94522.23;1760155;81;20225;-53
2021/04/18 04:55:55;;;;;;;;;;;;;;;7.34;72.76;94518.29;1760171;81;20276;-54
2021/04/18 04:58:23;;;;;;;;;;;;;;;7.33;72.56;94524.34;1760121;81;20229;-55
2021/04/18 05:00:52;;;;;;;;;;;;;;;7.37;72.53;94518.17;1760151;81;20230;-55
2021/04/18 05:03:23;;;;;;;;;;;;;;;7.41;72.34;94519.45;1760169;81;21314;-53
2021/04/18 05:05:50;;;;;;;;;;;;;;;7.42;72.13;94523.14;1760072;81;20225;-54
2021/04/18 05:08:18;;;;;;;;;;;;;;;7.43;72.15;94523.31;1760133;81;20216;-55
2021/04/18 05:10:45;;;;;;;;;;;;;;;7.45;72.08;94517.39;1760129;81;20292;-54
2021/04/18 05:13:13;;;;;;;;;;;;;;;7.51;72.12;94519.17;1760165;81;20505;-53
2021/04/18 05:15:42;;;;;;;;;;;;;;;7.59;71.95;94517.79;1760050;81;20224;-54
2021/04/18 05:18:10;;;;;;;;;;;;;;;7.69;71.75;94522.80;1759990;81;20237;-54
2021/04/18 05:20:40;;;;;;;;;;;;;;;7.78;71.38;94520.18;1760073;81;20248;-53
2021/04/18 05:23:07;;;;;;;;;;;;;;;7.82;71.21;94524.36;1759990;81;20224;-54
2021/04/18 05:25:37;;;;;;;;;;;;;;;7.79;70.93;94526.61;1760132;81;20241;-54
2021/04/18 05:28:05;;;;;;;;;;;;;;;7.76;70.59;94528.84;1760153;81;21295;-53
2021/04/18 05:30:32;;;;;;;;;;;;;;;7.73;70.53;94528.32;1760038;81;20238;-54
2021/04/18 05:33:01;;;;;;;;;;;;;;;7.75;70.45;94525.16;1759234;81;20225;-54
2021/04/18 05:35:29;;;;;;;;;;;;;;;7.73;70.31;94526.95;1760162;81;20228;-54
2021/04/18 05:37:58;;;;;;;;;;;;;;;7.75;70.29;94530.05;1760109;81;20233;-54
2021/04/18 05:40:28;;;;;;;;;;;;;;;7.77;70.27;94533.12;1760169;81;21203;-53
2021/04/18 05:42:57;;;;;;;;;;;;;;;7.77;70.16;94526.28;1760039;81;20241;-54
2021/04/18 05:45:26;;;;;;;;;;;;;;;7.75;70.06;94532.78;1760083;81;20225;-55
2021/04/18 05:47:53;;;;;;;;;;;;;;;7.68;70.24;94532.22;1760111;81;20224;-55
2021/04/18 05:50:21;;;;;;;;;;;;;;;7.63;70.39;94525.88;1760150;81;20242;-57
2021/04/18 05:52:49;;;;;;;;;;;;;;;7.58;70.50;94525.83;1760117;81;21156;-54
2021/04/18 05:55:16;;;;;;;;;;;;;;;7.55;70.55;94523.19;1760012;81;20217;-55
2021/04/18 05:57:44;;;;;;;;;;;;;;;7.53;70.60;94524.97;1760019;81;20229;-58
2021/04/18 06:00:13;;;;;;;;;;;;;;;7.59;70.81;94522.48;1760065;81;20224;-54
2021/04/18 06:02:42;;;;;;;;;;;;;;;7.64;70.67;94530.16;1760158;81;20237;-55
2021/04/18 06:05:11;;;;;;;;;;;;;;;7.61;70.46;94521.44;1760124;81;21365;-52
2021/04/18 06:07:39;;;;;;;;;;;;;;;7.62;70.52;94533.34;1760029;81;20228;-54
2021/04/18 06:10:10;;;;;;;;;;;;;;;7.67;70.12;94528.70;1759982;81;20252;-53
2021/04/18 06:12:37;;;;;;;;;;;;;;;7.71;70.00;94534.08;1760094;81;20236;-54
2021/04/18 06:15:08;;;;;;;;;;;;;;;7.71;69.80;94531.34;1760095;81;20225;-54
2021/04/18 06:17:35;;;;;;;;;;;;;;;7.71;69.71;94538.94;1760109;81;21212;-54
2021/04/18 06:20:05;;;;;;;;;;;;;;;7.72;69.63;94547.32;1760021;81;20224;-54
2021/04/18 06:22:33;;;;;;;;;;;;;;;7.72;69.43;94548.69;1759909;81;20224;-54
2021/04/18 06:25:01;;;;;;;;;;;;;;;7.75;69.26;94545.11;1760136;81;20237;-54
2021/04/18 06:27:28;;;;;;;;;;;;;;;7.80;69.28;94552.00;1760148;81;20228;-54
2021/04/18 06:29:56;;;;;;;;;;;;;;;7.80;69.06;94547.31;1760071;81;21207;-58
2021/04/18 06:32:24;;;;;;;;;;;;;;;7.79;68.85;94549.88;1760062;81;20224;-55
2021/04/18 06:34:53;;;;;;;;;;;;;;;7.82;68.74;94544.91;1758844;81;20492;-54
2021/04/18 06:37:21;;;;;;;;;;;;;;;7.92;68.59;94545.19;1759993;80;20220;-53
2021/04/18 06:39:49;;;;;;;;;;;;;;;8.07;68.21;94543.58;1760042;81;20240;-54
2021/04/18 06:42:17;;;;;;;;;;;;;;;8.15;67.33;94539.45;1760074;81;21221;-55
2021/04/18 06:44:45;;;;;;;;;;;;;;;8.26;67.00;94550.87;1760199;81;20897;-54
2021/04/18 06:47:14;;;;;;;;;;;;;;;8.38;66.58;94551.50;1760060;81;20497;-54
2021/04/18 06:49:42;;;;;;;;;;;;;;;8.52;66.01;94546.18;1760017;81;20229;-56
2021/04/18 06:52:11;;;;;;;;;;;;;;;8.64;65.42;94544.80;1760085;81;20252;-55
2021/04/18 06:54:39;;;;;;;;;;;;;;;8.74;65.04;94545.09;1760172;81;21498;-55
2021/04/18 06:57:08;;;;;;;;;;;;;;;8.84;64.81;94541.84;1759962;81;20224;-55
2021/04/18 06:59:37;;;;;;;;;;;;;;;8.93;64.38;94539.97;1760040;81;20248;-55
2021/04/18 07:02:05;;;;;;;;;;;;;;;9.05;63.81;94533.70;1760116;81;20668;-54
2021/04/18 07:04:34;;;;;;;;;;;;;;;9.15;63.31;94529.82;1760004;81;20240;-55
2021/04/18 07:07:03;;;;;;;;;;;;;;;9.18;63.02;94537.94;1760089;81;21212;-55
2021/04/18 07:09:31;;;;;;;;;;;;;;;9.21;62.79;94533.56;1760015;81;20220;-55
2021/04/18 07:12:02;;;;;;;;;;;;;;;9.22;62.89;94527.61;1734718;81;20213;-54
2021/04/18 07:14:33;;;;;;;;;;;;;;;9.21;62.58;94528.07;1760082;81;20224;-57
2021/04/18 07:17:13;;;;;;;;;;;;;;;9.14;62.30;94531.81;1759916;81;37938;-55
2021/04/18 07:19:50;;;;;;;;;;;;;;;9.09;62.23;94531.60;1760129;81;21216;-55
2021/04/18 07:22:21;;;;;;;;;;;;;;;9.02;62.04;94527.70;1761789;81;20224;-57
2021/04/18 07:24:52;;;;;;;;;;;;;;;8.94;62.28;94525.82;1773289;81;20244;-55
2021/04/18 07:27:20;;;;;;;;;;;;;;;8.88;61.93;94527.41;1773275;81;20224;-55
2021/04/18 07:29:54;;;;;;;;;;;;;;;8.78;61.90;94532.64;1773621;81;20219;-54
2021/04/18 07:32:25;;;;;;;;;;;;;;;8.65;62.08;94523.03;1772352;81;21206;-54
2021/04/18 07:34:54;;;;;;;;;;;;;;;8.57;62.25;94525.84;1773657;81;20662;-54
2021/04/18 07:37:24;;;;;;;;;;;;;;;8.52;62.73;94524.25;1773574;81;20212;-55
2021/04/18 07:39:57;;;;;;;;;;;;;;;8.49;62.73;94524.55;1773562;81;20266;-56
2021/04/18 07:42:35;;;;;;;;;;;;;;;8.48;62.99;94527.12;1773656;81;20240;-58
2021/04/18 07:45:11;;;;;;;;;;;;;;;8.53;62.93;94529.30;1773639;81;21276;-57
2021/04/18 07:47:43;;;;;;;;;;;;;;;8.53;62.84;94529.89;1773547;81;20228;-55
2021/04/18 07:50:16;;;;;;;;;;;;;;;8.51;62.79;94529.57;1773565;81;20216;-54
2021/04/18 07:52:45;;;;;;;;;;;;;;;8.51;62.85;94529.57;1773329;81;20239;-55
2021/04/18 07:55:14;;;;;;;;;;;;;;;8.51;62.93;94526.83;1773625;81;20223;-54
2021/04/18 07:57:42;;;;;;;;;;;;;;;8.45;62.74;94534.08;1773695;81;22275;-55
2021/04/18 08:00:12;;;;;;;;;;;;;;;8.40;62.57;94530.52;1773541;81;20483;-54
2021/04/18 08:02:41;;;;;;;;;;;;;;;8.36;62.75;94525.13;1773579;81;20219;-55
2021/04/18 08:05:11;;;;;;;;;;;;;;;8.33;62.85;94520.53;1773635;80;20244;-58
2021/04/18 08:08:13;;;;;;;;;;;;;;;8.34;63.02;94524.80;1773677;80;20243;-55
2021/04/18 08:10:51;;;;;;;;;;;;;;;8.32;62.99;94531.33;1773548;81;21379;-57
2021/04/18 08:13:23;;;;;;;;;;;;;;;8.30;62.99;94528.85;1773574;81;20217;-55
2021/04/18 08:16:03;;;;;;;;;;;;;;;8.29;62.97;94523.95;1773603;81;20240;-55
2021/04/18 08:18:44;;;;;;;;;;;;;;;8.30;63.00;94519.27;1773707;81;20244;-54
2021/04/18 08:21:35;;;;;;;;;;;;;;;8.30;62.96;94524.16;1772725;81;20207;-55
2021/04/18 08:24:05;;;;;;;;;;;;;;;8.29;63.10;94523.95;1762939;81;21213;-55
2021/04/18 08:26:35;;;;;;;;;;;;;;;8.29;63.06;94518.48;1760157;81;20246;-53
2021/04/18 08:29:06;;;;;;;;;;;;;;;8.39;63.23;94518.77;1760207;81;20237;-54
2021/04/18 08:31:54;;;;;;;;;;;;;;;8.52;63.11;94514.66;1760203;81;20221;-54
2021/04/18 08:34:31;;;;;;;;;;;;;;;8.67;62.92;94516.53;1760231;81;20220;-54
2021/04/18 08:37:01;;;;;;;;;;;;;;;8.84;62.58;94520.66;1760189;81;21375;-53
2021/04/18 08:39:40;;;;;;;;;;;;;;;9.03;62.23;94514.92;1760023;81;20233;-55
2021/04/18 08:42:09;;;;;;;;;;;;;;;9.21;62.12;94518.46;1760228;81;20237;-55
2021/04/18 08:44:42;;;;;;;;;;;;;;;9.37;61.63;94517.69;1760140;81;20257;-54
2021/04/18 08:47:14;;;;;;;;;;;;;;;9.51;61.27;94516.42;1760200;81;20216;-55
2021/04/18 08:49:44;;;;;;;;;;;;;;;9.59;60.94;94519.84;1760218;81;21212;-53
2021/04/18 08:52:28;;;;;;;;;;;;;;;9.67;60.66;94514.28;1760200;81;20541;-55
2021/04/18 08:54:59;;;;;;;;;;;;;;;9.73;60.16;94508.36;1759451;81;20228;-54
2021/04/18 08:57:28;;;;;;;;;;;;;;;9.73;59.57;94510.33;1734883;81;20564;-55
2021/04/18 09:00:01;;;;;;;;;;;;;;;9.71;59.47;94505.30;1760225;81;20496;-57
2021/04/18 09:02:29;;;;;;;;;;;;;;;9.75;60.14;94507.31;1760144;81;21210;-56
2021/04/18 09:04:59;;;;;;;;;;;;;;;9.89;60.04;94495.03;1760166;81;20252;-57
2021/04/18 09:07:30;;;;;;;;;;;;;;;10.10;59.77;94498.39;1760130;81;20216;-58
2021/04/18 09:10:02;;;;;;;;;;;;;;;10.32;58.96;94503.27;1760117;81;20228;-57
2021/04/18 09:12:30;;;;;;;;;;;;;;;10.54;58.41;94498.47;1760171;81;20224;-56
2021/04/18 09:14:58;;;;;;;;;;;;;;;10.71;57.76;94490.13;1760116;81;21213;-55
2021/04/18 09:17:31;;;;;;;;;;;;;;;10.82;56.80;94498.86;1760132;81;20221;-55
2021/04/18 09:20:03;;;;;;;;;;;;;;;10.86;56.60;94499.50;1760092;81;20234;-54
2021/04/18 09:22:36;;;;;;;;;;;;;;;10.90;56.29;94494.62;1760026;81;20217;-57
2021/04/18 09:25:08;;;;;;;;;;;;;;;10.90;56.23;94500.72;1760229;81;20233;-55
2021/04/18 09:27:40;;;;;;;;;;;;;;;10.87;56.21;94498.28;1760153;81;21363;-54
2021/04/18 09:30:16;;;;;;;;;;;;;;;10.80;55.73;94497.80;1759977;81;20244;-55
2021/04/18 09:32:49;;;;;;;;;;;;;;;10.69;55.85;94487.06;1760095;81;20241;-56
2021/04/18 09:35:21;;;;;;;;;;;;;;;10.56;55.72;94492.66;1759906;81;20209;-56
2021/04/18 09:37:52;;;;;;;;;;;;;;;10.43;55.76;94494.77;1760088;81;20216;-56
2021/04/18 09:40:23;;;;;;;;;;;;;;;10.32;55.96;94494.39;1760104;81;21212;-56
2021/04/18 09:42:51;;;;;;;;;;;;;;;10.22;55.78;94499.70;1760015;81;20244;-57
2021/04/18 09:45:27;;;;;;;;;;;;;;;10.15;55.80;94495.08;1760060;81;20242;-59
2021/04/18 09:47:57;;;;;;;;;;;;;;;10.12;55.96;94499.48;1760080;81;20284;-54
2021/04/18 09:50:31;;;;;;;;;;;;;;;10.12;55.88;94495.95;1760165;81;20273;-55
2021/04/18 09:53:18;;;;;;;;;;;;;;;10.14;55.96;94490.17;1760085;81;22082;-56
2021/04/18 09:56:05;;;;;;;;;;;;;;;10.17;56.42;94492.02;1758914;81;20248;-55
2021/04/18 09:58:40;;;;;;;;;;;;;;;10.17;55.94;94483.77;1759906;81;20240;-55
2021/04/18 10:01:28;;;;;;;;;;;;;;;10.17;55.60;94479.65;1760003;81;20241;-55
2021/04/18 10:03:57;;;;;;;;;;;;;;;10.17;55.33;94478.90;1759995;81;20217;-55
2021/04/18 10:06:26;;;;;;;;;;;;;;;10.22;55.18;94482.42;1759775;81;22513;-54
2021/04/18 10:09:01;;;;;;;;;;;;;;;10.27;54.77;94481.84;1745097;81;20209;-55
2021/04/18 10:11:29;;;;;;;;;;;;;;;10.34;54.71;94476.08;1744893;82;20485;-55
2021/04/18 10:13:58;;;;;;;;;;;;;;;10.41;54.41;94473.05;1744784;82;20227;-55
2021/04/18 10:16:42;;;;;;;;;;;;;;;10.46;54.39;94473.22;1744846;82;20526;-58
2021/04/18 10:19:16;;;;;;;;;;;;;;;10.52;54.38;94476.91;1744595;82;21444;-55
2021/04/18 10:22:04;;;;;;;;;;;;;;;10.55;54.06;94466.38;1744742;82;20501;-56
2021/04/18 10:24:53;;;;;;;;;;;;;;;10.61;54.01;94471.45;1761923;81;20235;-56
2021/04/18 10:27:26;;;;;;;;;;;;;;;10.70;53.82;94469.34;1769897;81;20575;-55
2021/04/18 10:29:56;;;;;;;;;;;;;;;10.71;53.79;94478.50;1769843;81;20298;-57
2021/04/18 10:32:25;;;;;;;;;;;;;;;10.68;53.92;94473.91;1769796;81;21202;-57
2021/04/18 10:34:54;;;;;;;;;;;;;;;10.65;54.00;94469.91;1769567;81;20290;-57
2021/04/18 10:37:23;;;;;;;;;;;;;;;10.59;54.22;94473.11;1769497;81;20514;-55
2021/04/18 10:39:53;;;;;;;;;;;;;;;10.48;54.10;94476.28;1769706;81;20246;-55
2021/04/18 10:42:20;;;;;;;;;;;;;;;10.39;53.58;94476.86;1769871;81;21593;-55
2021/04/18 10:44:49;;;;;;;;;;;;;;;10.30;53.82;94476.20;1769764;80;21450;-54
2021/04/18 10:47:18;;;;;;;;;;;;;;;10.30;54.13;94472.68;1769560;81;20255;-54
2021/04/18 10:49:48;;;;;;;;;;;;;;;10.31;55.44;94470.11;1769689;81;20239;-54
2021/04/18 10:52:16;;;;;;;;;;;;;;;10.32;54.61;94464.77;1769758;81;20319;-54
2021/04/18 10:54:44;;;;;;;;;;;;;;;10.32;54.17;94462.77;1769718;81;20239;-56
2021/04/18 10:57:13;;;;;;;;;;;;;;;10.35;53.85;94463.23;1769695;81;20243;-56
2021/04/18 10:59:41;;;;;;;;;;;;;;;10.43;53.79;94462.36;1769517;81;20235;-56
2021/04/18 11:02:10;;;;;;;;;;;;;;;10.51;53.62;94463.62;1769725;81;20223;-55
2021/04/18 11:04:38;;;;;;;;;;;;;;;10.58;53.60;94458.61;1769627;81;20252;-54
2021/04/18 11:07:08;;;;;;;;;;;;;;;10.63;53.13;94462.73;1769796;81;20282;-54
2021/04/18 11:09:37;;;;;;;;;;;;;;;10.69;53.07;94463.69;1769722;81;21149;-56
2021/04/18 11:12:19;;;;;;;;;;;;;;;10.81;53.30;94475.94;1769713;81;20306;-55
2021/04/18 11:14:47;;;;;;;;;;;;;;;10.84;52.91;94474.40;1769670;81;20397;-55
2021/04/18 11:17:15;;;;;;;;;;;;;;;10.92;52.79;94468.00;1769798;81;20587;-55
2021/04/18 11:19:44;;;;;;;;;;;;;;;10.99;52.49;94468.48;1769634;81;20239;-55
2021/04/18 11:22:13;;;;;;;;;;;;;;;11.08;52.20;94466.34;1769855;81;22056;-55
2021/04/18 11:24:41;;;;;;;;;;;;;;;11.09;52.04;94466.50;1773552;80;20259;-55
2021/04/18 11:27:09;;;;;;;;;;;;;;;11.04;52.29;94472.03;1776544;80;20256;-56
2021/04/18 11:29:40;;;;;;;;;;;;;;;10.97;51.69;94458.53;1776420;80;20234;-56
2021/04/18 11:32:09;;;;;;;;;;;;;;;10.92;52.28;94467.41;1776723;80;20230;-55
2021/04/18 11:34:37;;;;;;;;;;;;;;;10.89;52.12;94466.16;1776437;80;21383;-55
2021/04/18 11:37:06;;;;;;;;;;;;;;;10.88;52.11;94468.17;1776498;80;21869;-53
2021/04/18 11:39:36;;;;;;;;;;;;;;;10.89;52.28;94457.31;1776349;80;20255;-55
2021/04/18 11:42:05;;;;;;;;;;;;;;;10.86;52.39;94460.98;1776584;80;20243;-55
2021/04/18 11:44:34;;;;;;;;;;;;;;;10.85;52.47;94459.45;1776548;80;20243;-56
2021/04/18 11:47:02;;;;;;;;;;;;;;;10.87;53.14;94459.76;1776503;80;21361;-55
2021/04/18 11:49:32;;;;;;;;;;;;;;;10.89;52.92;94455.94;1776424;80;20254;-55
2021/04/18 11:52:00;;;;;;;;;;;;;;;10.86;52.51;94451.95;1776519;80;20231;-53
2021/04/18 11:54:28;;;;;;;;;;;;;;;10.83;52.93;94449.48;1776706;80;20246;-55
2021/04/18 11:56:56;;;;;;;;;;;;;;;10.81;52.76;94450.55;1776777;80;20286;-57
2021/04/18 11:59:24;;;;;;;;;;;;;;;10.81;52.15;94453.30;1776716;80;21292;-56
2021/04/18 12:01:54;;;;;;;;;;;;;;;10.85;52.01;94447.06;1776623;80;20230;-60
2021/04/18 12:04:22;;;;;;;;;;;;;;;10.89;52.55;94446.30;1776677;80;20235;-58
2021/04/18 12:06:51;;;;;;;;;;;;;;;10.92;52.23;94434.38;1776748;80;20597;-55
2021/04/18 12:09:21;;;;;;;;;;;;;;;10.95;51.77;94445.84;1776728;80;20231;-55
2021/04/18 12:11:49;;;;;;;;;;;;;;;11.04;51.63;94454.13;1776609;80;21190;-54
2021/04/18 12:14:17;;;;;;;;;;;;;;;11.15;50.71;94447.55;1776633;80;20262;-59
2021/04/18 12:16:46;;;;;;;;;;;;;;;11.20;51.05;94440.68;1776524;80;20301;-58
2021/04/18 12:19:14;;;;;;;;;;;;;;;11.34;50.60;94440.83;1776602;80;20210;-57
2021/04/18 12:21:43;;;;;;;;;;;;;;;11.53;50.50;94437.47;1776580;80;20534;-58
2021/04/18 12:24:12;;;;;;;;;;;;;;;11.70;50.39;94437.33;1772772;80;21154;-55
2021/04/18 12:26:41;;;;;;;;;;;;;;;11.88;50.00;94433.92;1761860;81;20519;-56
2021/04/18 12:29:09;;;;;;;;;;;;;;;11.99;49.50;94434.81;1762033;81;20503;-56
2021/04/18 12:31:41;;;;;;;;;;;;;;;12.11;49.92;94436.00;1761903;81;20227;-55
2021/04/18 12:34:08;;;;;;;;;;;;;;;12.22;48.78;94431.37;1762004;81;20232;-55
2021/04/18 12:36:39;;;;;;;;;;;;;;;12.26;48.17;94433.37;1761972;81;22258;-55
2021/04/18 12:39:08;;;;;;;;;;;;;;;12.32;47.70;94435.03;1761926;81;20247;-55
2021/04/18 12:41:36;;;;;;;;;;;;;;;12.33;47.01;94428.28;1761990;81;20530;-55
2021/04/18 12:44:04;;;;;;;;;;;;;;;12.21;46.56;94427.86;1761964;81;20250;-55
2021/04/18 12:46:33;;;;;;;;;;;;;;;12.09;46.58;94423.92;1761913;81;20252;-56
2021/04/18 12:49:03;;;;;;;;;;;;;;;11.97;46.91;94419.34;1762056;81;21271;-56
2021/04/18 12:51:32;;;;;;;;;;;;;;;11.89;47.17;94429.18;1761864;81;20244;-56
2021/04/18 12:54:02;;;;;;;;;;;;;;;11.82;46.99;94428.11;1761970;81;20227;-55
2021/04/18 12:56:31;;;;;;;;;;;;;;;11.69;47.05;94433.05;1762002;81;20247;-57
2021/04/18 12:58:59;;;;;;;;;;;;;;;11.57;47.61;94423.70;1735971;81;20265;-55
2021/04/18 13:01:29;;;;;;;;;;;;;;;11.52;47.94;94426.30;1729729;83;22202;-55
2021/04/18 13:03:58;;;;;;;;;;;;;;;11.43;48.30;94424.91;1729698;83;20527;-55
2021/04/18 13:06:27;;;;;;;;;;;;;;;11.30;49.06;94427.05;1729723;83;20561;-54